sensor_id;sensor_type;location;lat;lon;timestamp;P1;durP1;ratioP1;P2;durP2;ratioP2
13985;SDS011;7067;51.832;8.296;2024-03-23T00:55:35;14.80;;;6.18;;
13985;SDS011;7067;51.832;8.296;2024-03-23T00:58:01;14.93;;;4.40;;
13985;SDS011;7067;51.832;8.296;2024-03-23T01:00:26;17.05;;;4.25;;
13985;SDS011;7067;51.832;8.296;2024-03-23T01:02:51;16.25;;;4.85;;
13985;SDS011;7067;51.832;8.296;2024-03-23T01:05:17;13.60;;;4.53;;
13985;SDS011;7067;51.832;8.296;2024-03-23T01:07:42;12.25;;;4.18;;
13985;SDS011;7067;51.832;8.296;2024-03-23T01:10:07;16.80;;;4.78;;
13985;SDS011;7067;51.832;8.296;2024-03-23T01:12:33;13.20;;;4.50;;
13985;SDS011;7067;51.832;8.296;2024-03-23T01:14:58;13.55;;;4.13;;
13985;SDS011;7067;51.832;8.296;2024-03-23T01:17:24;14.45;;;4.38;;
13985;SDS011;7067;51.832;8.296;2024-03-23T01:19:49;7.85;;;3.80;;
13985;SDS011;7067;51.832;8.296;2024-03-23T01:22:14;13.90;;;4.90;;
13985;SDS011;7067;51.832;8.296;2024-03-23T01:24:40;14.75;;;4.75;;
13985;SDS011;7067;51.832;8.296;2024-03-23T01:27:05;18.85;;;5.22;;
13985;SDS011;7067;51.832;8.296;2024-03-23T01:29:30;10.52;;;3.90;;
13985;SDS011;7067;51.832;8.296;2024-03-23T01:31:56;12.60;;;4.15;;
13985;SDS011;7067;51.832;8.296;2024-03-23T01:34:21;18.73;;;4.93;;
13985;SDS011;7067;51.832;8.296;2024-03-23T01:36:47;18.95;;;4.03;;
13985;SDS011;7067;51.832;8.296;2024-03-23T01:39:12;13.90;;;4.60;;
13985;SDS011;7067;51.832;8.296;2024-03-23T01:41:39;25.58;;;4.53;;
13985;SDS011;7067;51.832;8.296;2024-03-23T01:44:07;16.35;;;4.65;;
13985;SDS011;7067;51.832;8.296;2024-03-23T01:46:33;14.88;;;4.18;;
13985;SDS011;7067;51.832;8.296;2024-03-23T01:49:02;11.77;;;3.95;;
13985;SDS011;7067;51.832;8.296;2024-03-23T01:51:27;13.38;;;4.00;;
13985;SDS011;7067;51.832;8.296;2024-03-23T01:53:53;15.30;;;3.72;;
13985;SDS011;7067;51.832;8.296;2024-03-23T01:56:19;10.27;;;3.60;;
13985;SDS011;7067;51.832;8.296;2024-03-23T01:58:44;11.57;;;3.92;;
13985;SDS011;7067;51.832;8.296;2024-03-23T02:01:10;9.18;;;3.75;;
13985;SDS011;7067;51.832;8.296;2024-03-23T02:03:35;10.15;;;4.22;;
13985;SDS011;7067;51.832;8.296;2024-03-23T02:06:01;13.15;;;4.35;;
13985;SDS011;7067;51.832;8.296;2024-03-23T02:08:27;19.58;;;4.88;;
13985;SDS011;7067;51.832;8.296;2024-03-23T02:10:52;11.45;;;3.67;;
13985;SDS011;7067;51.832;8.296;2024-03-23T02:13:18;7.75;;;3.05;;
13985;SDS011;7067;51.832;8.296;2024-03-23T02:15:43;10.73;;;4.28;;
13985;SDS011;7067;51.832;8.296;2024-03-23T02:18:12;8.95;;;3.20;;
13985;SDS011;7067;51.832;8.296;2024-03-23T02:20:38;11.48;;;3.35;;
13985;SDS011;7067;51.832;8.296;2024-03-23T02:23:12;9.00;;;3.35;;
13985;SDS011;7067;51.832;8.296;2024-03-23T02:25:38;10.68;;;3.45;;
13985;SDS011;7067;51.832;8.296;2024-03-23T02:28:04;8.80;;;3.08;;
13985;SDS011;7067;51.832;8.296;2024-03-23T02:30:30;12.75;;;3.78;;
13985;SDS011;7067;51.832;8.296;2024-03-23T02:32:55;8.80;;;3.15;;
13985;SDS011;7067;51.832;8.296;2024-03-23T02:35:21;14.25;;;4.22;;
13985;SDS011;7067;51.832;8.296;2024-03-23T02:37:47;11.02;;;3.83;;
13985;SDS011;7067;51.832;8.296;2024-03-23T02:40:14;6.35;;;3.30;;
13985;SDS011;7067;51.832;8.296;2024-03-23T02:42:39;9.65;;;3.20;;
13985;SDS011;7067;51.832;8.296;2024-03-23T02:45:05;12.05;;;3.28;;
13985;SDS011;7067;51.832;8.296;2024-03-23T02:47:30;11.85;;;3.30;;
13985;SDS011;7067;51.832;8.296;2024-03-23T02:49:56;12.55;;;3.13;;
13985;SDS011;7067;51.832;8.296;2024-03-23T02:52:21;11.45;;;2.97;;
13985;SDS011;7067;51.832;8.296;2024-03-23T02:54:46;9.43;;;2.83;;
13985;SDS011;7067;51.832;8.296;2024-03-23T02:57:12;5.05;;;2.45;;
13985;SDS011;7067;51.832;8.296;2024-03-23T02:59:37;5.68;;;2.50;;
13985;SDS011;7067;51.832;8.296;2024-03-23T03:02:02;6.00;;;2.20;;
13985;SDS011;7067;51.832;8.296;2024-03-23T03:04:29;7.93;;;2.63;;
13985;SDS011;7067;51.832;8.296;2024-03-23T03:06:55;8.48;;;2.83;;
13985;SDS011;7067;51.832;8.296;2024-03-23T03:09:21;9.07;;;2.67;;
13985;SDS011;7067;51.832;8.296;2024-03-23T03:11:46;8.27;;;2.70;;
13985;SDS011;7067;51.832;8.296;2024-03-23T03:14:11;5.53;;;2.30;;
13985;SDS011;7067;51.832;8.296;2024-03-23T03:16:37;3.42;;;2.25;;
13985;SDS011;7067;51.832;8.296;2024-03-23T03:19:02;5.90;;;2.42;;
13985;SDS011;7067;51.832;8.296;2024-03-23T03:21:28;9.68;;;4.20;;
13985;SDS011;7067;51.832;8.296;2024-03-23T03:23:53;9.13;;;2.67;;
13985;SDS011;7067;51.832;8.296;2024-03-23T03:26:21;11.73;;;2.85;;
13985;SDS011;7067;51.832;8.296;2024-03-23T03:28:46;10.55;;;3.35;;
13985;SDS011;7067;51.832;8.296;2024-03-23T03:31:17;6.75;;;2.88;;
13985;SDS011;7067;51.832;8.296;2024-03-23T03:33:43;6.90;;;2.55;;
13985;SDS011;7067;51.832;8.296;2024-03-23T03:36:09;6.70;;;2.88;;
13985;SDS011;7067;51.832;8.296;2024-03-23T03:38:34;5.55;;;2.47;;
13985;SDS011;7067;51.832;8.296;2024-03-23T03:41:03;4.72;;;2.15;;
13985;SDS011;7067;51.832;8.296;2024-03-23T03:43:29;7.75;;;3.00;;
13985;SDS011;7067;51.832;8.296;2024-03-23T03:45:54;8.63;;;2.67;;
13985;SDS011;7067;51.832;8.296;2024-03-23T03:48:20;6.15;;;2.08;;
13985;SDS011;7067;51.832;8.296;2024-03-23T03:50:46;9.02;;;2.38;;
13985;SDS011;7067;51.832;8.296;2024-03-23T03:53:11;6.57;;;2.33;;
13985;SDS011;7067;51.832;8.296;2024-03-23T03:55:37;6.50;;;2.30;;
13985;SDS011;7067;51.832;8.296;2024-03-23T03:58:02;8.35;;;2.60;;
13985;SDS011;7067;51.832;8.296;2024-03-23T04:00:27;7.13;;;2.30;;
13985;SDS011;7067;51.832;8.296;2024-03-23T04:02:53;9.15;;;2.45;;
13985;SDS011;7067;51.832;8.296;2024-03-23T04:05:18;7.63;;;2.28;;
13985;SDS011;7067;51.832;8.296;2024-03-23T04:07:44;7.45;;;2.50;;
13985;SDS011;7067;51.832;8.296;2024-03-23T04:10:10;9.93;;;2.67;;
13985;SDS011;7067;51.832;8.296;2024-03-23T04:12:36;5.53;;;2.47;;
13985;SDS011;7067;51.832;8.296;2024-03-23T04:15:01;7.82;;;3.10;;
13985;SDS011;7067;51.832;8.296;2024-03-23T04:17:28;10.02;;;2.90;;
13985;SDS011;7067;51.832;8.296;2024-03-23T04:19:57;10.43;;;2.92;;
13985;SDS011;7067;51.832;8.296;2024-03-23T04:22:22;7.95;;;2.75;;
13985;SDS011;7067;51.832;8.296;2024-03-23T04:24:49;6.18;;;2.10;;
13985;SDS011;7067;51.832;8.296;2024-03-23T04:27:15;12.68;;;2.90;;
13985;SDS011;7067;51.832;8.296;2024-03-23T04:29:40;9.27;;;2.53;;
13985;SDS011;7067;51.832;8.296;2024-03-23T04:32:05;18.30;;;4.60;;
13985;SDS011;7067;51.832;8.296;2024-03-23T04:34:31;8.55;;;2.63;;
13985;SDS011;7067;51.832;8.296;2024-03-23T04:36:57;11.00;;;3.20;;
13985;SDS011;7067;51.832;8.296;2024-03-23T04:39:23;13.30;;;3.60;;
13985;SDS011;7067;51.832;8.296;2024-03-23T04:41:48;10.70;;;2.63;;
13985;SDS011;7067;51.832;8.296;2024-03-23T04:44:15;14.05;;;3.25;;
13985;SDS011;7067;51.832;8.296;2024-03-23T04:46:40;10.63;;;2.35;;
13985;SDS011;7067;51.832;8.296;2024-03-23T04:49:05;9.60;;;2.50;;
13985;SDS011;7067;51.832;8.296;2024-03-23T04:51:35;9.02;;;2.45;;
13985;SDS011;7067;51.832;8.296;2024-03-23T04:54:01;8.07;;;2.20;;
13985;SDS011;7067;51.832;8.296;2024-03-23T04:56:27;11.80;;;2.45;;
13985;SDS011;7067;51.832;8.296;2024-03-23T04:58:52;7.28;;;2.15;;
13985;SDS011;7067;51.832;8.296;2024-03-23T05:01:18;8.15;;;2.15;;
13985;SDS011;7067;51.832;8.296;2024-03-23T05:03:44;8.05;;;2.10;;
13985;SDS011;7067;51.832;8.296;2024-03-23T05:06:09;8.80;;;2.25;;
13985;SDS011;7067;51.832;8.296;2024-03-23T05:08:34;12.23;;;2.40;;
13985;SDS011;7067;51.832;8.296;2024-03-23T05:11:00;10.00;;;2.70;;
13985;SDS011;7067;51.832;8.296;2024-03-23T05:13:25;9.05;;;2.20;;
13985;SDS011;7067;51.832;8.296;2024-03-23T05:15:52;8.43;;;2.80;;
13985;SDS011;7067;51.832;8.296;2024-03-23T05:18:18;15.57;;;4.05;;
13985;SDS011;7067;51.832;8.296;2024-03-23T05:20:43;10.02;;;3.28;;
13985;SDS011;7067;51.832;8.296;2024-03-23T05:23:09;10.25;;;2.60;;
13985;SDS011;7067;51.832;8.296;2024-03-23T05:25:34;8.80;;;2.70;;
13985;SDS011;7067;51.832;8.296;2024-03-23T05:28:00;10.10;;;3.33;;
13985;SDS011;7067;51.832;8.296;2024-03-23T05:30:25;12.82;;;2.70;;
13985;SDS011;7067;51.832;8.296;2024-03-23T05:32:50;8.88;;;2.63;;
13985;SDS011;7067;51.832;8.296;2024-03-23T05:35:15;7.13;;;2.30;;
13985;SDS011;7067;51.832;8.296;2024-03-23T05:37:41;15.18;;;2.92;;
13985;SDS011;7067;51.832;8.296;2024-03-23T05:40:06;12.40;;;2.65;;
13985;SDS011;7067;51.832;8.296;2024-03-23T05:42:33;10.88;;;2.70;;
13985;SDS011;7067;51.832;8.296;2024-03-23T05:44:58;7.85;;;2.50;;
13985;SDS011;7067;51.832;8.296;2024-03-23T05:47:24;11.07;;;2.60;;
13985;SDS011;7067;51.832;8.296;2024-03-23T05:49:49;12.18;;;2.67;;
13985;SDS011;7067;51.832;8.296;2024-03-23T05:52:16;7.22;;;2.28;;
13985;SDS011;7067;51.832;8.296;2024-03-23T05:54:42;14.35;;;3.05;;
13985;SDS011;7067;51.832;8.296;2024-03-23T05:57:08;10.38;;;2.80;;
13985;SDS011;7067;51.832;8.296;2024-03-23T05:59:34;9.68;;;2.97;;
13985;SDS011;7067;51.832;8.296;2024-03-23T06:01:59;9.75;;;2.20;;
13985;SDS011;7067;51.832;8.296;2024-03-23T06:04:25;11.13;;;3.22;;
13985;SDS011;7067;51.832;8.296;2024-03-23T06:06:53;17.10;;;4.45;;
13985;SDS011;7067;51.832;8.296;2024-03-23T06:09:18;16.40;;;4.63;;
13985;SDS011;7067;51.832;8.296;2024-03-23T06:11:44;14.77;;;4.75;;
13985;SDS011;7067;51.832;8.296;2024-03-23T06:14:10;15.30;;;4.95;;
13985;SDS011;7067;51.832;8.296;2024-03-23T06:16:35;17.73;;;5.72;;
13985;SDS011;7067;51.832;8.296;2024-03-23T06:19:01;16.75;;;6.03;;
13985;SDS011;7067;51.832;8.296;2024-03-23T06:21:28;21.55;;;6.40;;
13985;SDS011;7067;51.832;8.296;2024-03-23T06:23:54;24.05;;;6.32;;
13985;SDS011;7067;51.832;8.296;2024-03-23T06:26:19;20.13;;;7.25;;
13985;SDS011;7067;51.832;8.296;2024-03-23T06:28:45;16.20;;;7.05;;
13985;SDS011;7067;51.832;8.296;2024-03-23T06:31:11;25.98;;;7.90;;
13985;SDS011;7067;51.832;8.296;2024-03-23T06:33:37;25.52;;;7.57;;
13985;SDS011;7067;51.832;8.296;2024-03-23T06:36:04;20.65;;;7.97;;
13985;SDS011;7067;51.832;8.296;2024-03-23T06:38:30;13.80;;;8.00;;
13985;SDS011;7067;51.832;8.296;2024-03-23T06:40:55;20.27;;;7.72;;
13985;SDS011;7067;51.832;8.296;2024-03-23T06:43:21;19.83;;;7.65;;
13985;SDS011;7067;51.832;8.296;2024-03-23T06:45:55;20.15;;;7.43;;
13985;SDS011;7067;51.832;8.296;2024-03-23T06:48:21;23.55;;;7.90;;
13985;SDS011;7067;51.832;8.296;2024-03-23T06:50:46;18.08;;;7.45;;
13985;SDS011;7067;51.832;8.296;2024-03-23T06:53:12;18.33;;;7.55;;
13985;SDS011;7067;51.832;8.296;2024-03-23T06:55:38;19.90;;;8.20;;
13985;SDS011;7067;51.832;8.296;2024-03-23T06:58:03;20.30;;;9.25;;
13985;SDS011;7067;51.832;8.296;2024-03-23T07:00:29;20.23;;;8.30;;
13985;SDS011;7067;51.832;8.296;2024-03-23T07:02:54;19.52;;;9.43;;
13985;SDS011;7067;51.832;8.296;2024-03-23T07:05:20;23.85;;;8.85;;
13985;SDS011;7067;51.832;8.296;2024-03-23T07:07:45;22.92;;;9.57;;
13985;SDS011;7067;51.832;8.296;2024-03-23T07:10:11;20.55;;;9.70;;
13985;SDS011;7067;51.832;8.296;2024-03-23T07:12:36;31.10;;;11.68;;
13985;SDS011;7067;51.832;8.296;2024-03-23T07:15:02;19.77;;;9.77;;
13985;SDS011;7067;51.832;8.296;2024-03-23T07:17:27;18.27;;;10.43;;
13985;SDS011;7067;51.832;8.296;2024-03-23T07:19:53;20.25;;;10.77;;
13985;SDS011;7067;51.832;8.296;2024-03-23T07:22:18;19.00;;;9.65;;
13985;SDS011;7067;51.832;8.296;2024-03-23T07:24:43;23.88;;;10.88;;
13985;SDS011;7067;51.832;8.296;2024-03-23T07:27:09;27.50;;;9.98;;
13985;SDS011;7067;51.832;8.296;2024-03-23T07:29:35;25.45;;;11.32;;
13985;SDS011;7067;51.832;8.296;2024-03-23T07:32:01;25.55;;;11.15;;
13985;SDS011;7067;51.832;8.296;2024-03-23T07:34:26;22.08;;;10.75;;
13985;SDS011;7067;51.832;8.296;2024-03-23T07:36:52;18.55;;;10.30;;
13985;SDS011;7067;51.832;8.296;2024-03-23T07:39:17;21.80;;;10.73;;
13985;SDS011;7067;51.832;8.296;2024-03-23T07:41:45;22.30;;;11.52;;
13985;SDS011;7067;51.832;8.296;2024-03-23T07:44:10;21.65;;;10.30;;
13985;SDS011;7067;51.832;8.296;2024-03-23T07:46:36;22.05;;;10.88;;
13985;SDS011;7067;51.832;8.296;2024-03-23T07:49:01;21.15;;;11.18;;
13985;SDS011;7067;51.832;8.296;2024-03-23T07:51:27;20.02;;;11.43;;
13985;SDS011;7067;51.832;8.296;2024-03-23T07:53:52;19.88;;;9.75;;
13985;SDS011;7067;51.832;8.296;2024-03-23T07:56:18;23.27;;;10.30;;
13985;SDS011;7067;51.832;8.296;2024-03-23T07:58:44;25.55;;;9.80;;
13985;SDS011;7067;51.832;8.296;2024-03-23T08:01:14;24.08;;;10.23;;
13985;SDS011;7067;51.832;8.296;2024-03-23T08:03:41;16.80;;;8.90;;
13985;SDS011;7067;51.832;8.296;2024-03-23T08:06:10;20.60;;;8.88;;
13985;SDS011;7067;51.832;8.296;2024-03-23T08:08:45;18.80;;;9.10;;
13985;SDS011;7067;51.832;8.296;2024-03-23T08:11:11;18.65;;;8.05;;
13985;SDS011;7067;51.832;8.296;2024-03-23T08:13:38;17.75;;;8.00;;
13985;SDS011;7067;51.832;8.296;2024-03-23T08:16:04;15.93;;;8.20;;
13985;SDS011;7067;51.832;8.296;2024-03-23T08:18:30;17.92;;;8.45;;
13985;SDS011;7067;51.832;8.296;2024-03-23T08:20:59;17.90;;;8.68;;
13985;SDS011;7067;51.832;8.296;2024-03-23T08:23:28;19.20;;;8.40;;
13985;SDS011;7067;51.832;8.296;2024-03-23T08:25:58;16.02;;;7.60;;
13985;SDS011;7067;51.832;8.296;2024-03-23T08:28:24;14.88;;;8.65;;
13985;SDS011;7067;51.832;8.296;2024-03-23T08:30:50;22.77;;;8.85;;
13985;SDS011;7067;51.832;8.296;2024-03-23T08:33:15;14.85;;;7.65;;
13985;SDS011;7067;51.832;8.296;2024-03-23T08:35:41;18.27;;;7.70;;
13985;SDS011;7067;51.832;8.296;2024-03-23T08:38:07;15.90;;;7.60;;
13985;SDS011;7067;51.832;8.296;2024-03-23T08:40:32;14.05;;;7.20;;
13985;SDS011;7067;51.832;8.296;2024-03-23T08:42:57;13.40;;;6.38;;
13985;SDS011;7067;51.832;8.296;2024-03-23T08:45:24;17.35;;;6.97;;
13985;SDS011;7067;51.832;8.296;2024-03-23T08:47:49;14.73;;;6.50;;
13985;SDS011;7067;51.832;8.296;2024-03-23T08:50:15;17.50;;;6.25;;
13985;SDS011;7067;51.832;8.296;2024-03-23T08:52:40;19.38;;;6.68;;
13985;SDS011;7067;51.832;8.296;2024-03-23T08:55:05;14.93;;;6.47;;
13985;SDS011;7067;51.832;8.296;2024-03-23T08:57:31;13.80;;;5.95;;
13985;SDS011;7067;51.832;8.296;2024-03-23T08:59:56;21.00;;;6.05;;
13985;SDS011;7067;51.832;8.296;2024-03-23T09:02:22;17.67;;;6.18;;
13985;SDS011;7067;51.832;8.296;2024-03-23T09:04:47;13.05;;;5.38;;
13985;SDS011;7067;51.832;8.296;2024-03-23T09:07:13;11.40;;;5.63;;
13985;SDS011;7067;51.832;8.296;2024-03-23T09:09:38;15.18;;;6.10;;
13985;SDS011;7067;51.832;8.296;2024-03-23T09:12:05;14.25;;;6.50;;
13985;SDS011;7067;51.832;8.296;2024-03-23T09:14:30;12.85;;;5.93;;
13985;SDS011;7067;51.832;8.296;2024-03-23T09:16:56;13.55;;;5.47;;
13985;SDS011;7067;51.832;8.296;2024-03-23T09:19:21;11.50;;;5.90;;
13985;SDS011;7067;51.832;8.296;2024-03-23T09:21:46;12.98;;;6.13;;
13985;SDS011;7067;51.832;8.296;2024-03-23T09:24:11;12.75;;;4.60;;
13985;SDS011;7067;51.832;8.296;2024-03-23T09:26:37;15.35;;;4.63;;
13985;SDS011;7067;51.832;8.296;2024-03-23T09:29:02;11.18;;;4.90;;
13985;SDS011;7067;51.832;8.296;2024-03-23T09:31:28;12.18;;;4.68;;
13985;SDS011;7067;51.832;8.296;2024-03-23T09:33:56;14.05;;;4.22;;
13985;SDS011;7067;51.832;8.296;2024-03-23T09:36:22;12.02;;;4.10;;
13985;SDS011;7067;51.832;8.296;2024-03-23T09:38:48;8.93;;;3.47;;
13985;SDS011;7067;51.832;8.296;2024-03-23T09:41:13;12.35;;;4.32;;
13985;SDS011;7067;51.832;8.296;2024-03-23T09:43:39;7.35;;;3.03;;
13985;SDS011;7067;51.832;8.296;2024-03-23T09:46:04;13.30;;;3.92;;
13985;SDS011;7067;51.832;8.296;2024-03-23T09:48:30;14.82;;;4.95;;
13985;SDS011;7067;51.832;8.296;2024-03-23T09:50:56;8.80;;;3.28;;
13985;SDS011;7067;51.832;8.296;2024-03-23T09:53:21;6.18;;;3.22;;
13985;SDS011;7067;51.832;8.296;2024-03-23T09:55:47;12.90;;;3.88;;
13985;SDS011;7067;51.832;8.296;2024-03-23T09:58:14;7.88;;;3.30;;
13985;SDS011;7067;51.832;8.296;2024-03-23T10:00:41;8.38;;;3.85;;
13985;SDS011;7067;51.832;8.296;2024-03-23T10:03:07;7.18;;;3.00;;
13985;SDS011;7067;51.832;8.296;2024-03-23T10:05:33;7.97;;;3.28;;
13985;SDS011;7067;51.832;8.296;2024-03-23T10:07:59;5.75;;;2.97;;
13985;SDS011;7067;51.832;8.296;2024-03-23T10:10:25;10.88;;;4.10;;
13985;SDS011;7067;51.832;8.296;2024-03-23T10:12:50;7.38;;;2.20;;
13985;SDS011;7067;51.832;8.296;2024-03-23T10:15:22;4.32;;;1.15;;
13985;SDS011;7067;51.832;8.296;2024-03-23T10:17:49;2.08;;;0.77;;
13985;SDS011;7067;51.832;8.296;2024-03-23T10:20:18;1.88;;;0.75;;
13985;SDS011;7067;51.832;8.296;2024-03-23T10:22:45;2.33;;;0.77;;
13985;SDS011;7067;51.832;8.296;2024-03-23T10:25:11;2.45;;;1.35;;
13985;SDS011;7067;51.832;8.296;2024-03-23T10:27:37;4.55;;;1.52;;
13985;SDS011;7067;51.832;8.296;2024-03-23T10:30:09;2.63;;;1.20;;
13985;SDS011;7067;51.832;8.296;2024-03-23T10:32:35;2.92;;;1.00;;
13985;SDS011;7067;51.832;8.296;2024-03-23T10:35:19;3.25;;;0.98;;
13985;SDS011;7067;51.832;8.296;2024-03-23T10:37:46;4.93;;;1.30;;
13985;SDS011;7067;51.832;8.296;2024-03-23T10:40:12;3.20;;;1.40;;
13985;SDS011;7067;51.832;8.296;2024-03-23T10:42:38;2.15;;;1.60;;
13985;SDS011;7067;51.832;8.296;2024-03-23T10:45:05;5.30;;;1.80;;
13985;SDS011;7067;51.832;8.296;2024-03-23T10:47:34;5.53;;;2.00;;
13985;SDS011;7067;51.832;8.296;2024-03-23T10:50:01;4.90;;;1.75;;
13985;SDS011;7067;51.832;8.296;2024-03-23T10:52:27;6.47;;;1.90;;
13985;SDS011;7067;51.832;8.296;2024-03-23T10:54:53;5.80;;;2.15;;
13985;SDS011;7067;51.832;8.296;2024-03-23T10:57:20;5.88;;;2.22;;
13985;SDS011;7067;51.832;8.296;2024-03-23T10:59:47;5.20;;;2.15;;
13985;SDS011;7067;51.832;8.296;2024-03-23T11:02:19;3.83;;;2.00;;
13985;SDS011;7067;51.832;8.296;2024-03-23T11:04:45;3.63;;;2.20;;
13985;SDS011;7067;51.832;8.296;2024-03-23T11:07:31;6.50;;;2.08;;
13985;SDS011;7067;51.832;8.296;2024-03-23T11:09:58;4.75;;;2.25;;
13985;SDS011;7067;51.832;8.296;2024-03-23T11:14:53;5.53;;;3.00;;
13985;SDS011;7067;51.832;8.296;2024-03-23T11:19:49;7.97;;;2.55;;
13985;SDS011;7067;51.832;8.296;2024-03-23T11:22:37;6.40;;;2.83;;
13985;SDS011;7067;51.832;8.296;2024-03-23T11:27:46;8.40;;;2.05;;
13985;SDS011;7067;51.832;8.296;2024-03-23T11:30:31;5.07;;;2.40;;
13985;SDS011;7067;51.832;8.296;2024-03-23T11:32:57;7.43;;;2.30;;
13985;SDS011;7067;51.832;8.296;2024-03-23T11:35:26;4.43;;;2.40;;
13985;SDS011;7067;51.832;8.296;2024-03-23T11:38:08;7.38;;;3.13;;
13985;SDS011;7067;51.832;8.296;2024-03-23T11:40:35;9.02;;;3.15;;
13985;SDS011;7067;51.832;8.296;2024-03-23T11:43:11;9.27;;;2.70;;
13985;SDS011;7067;51.832;8.296;2024-03-23T11:45:39;7.45;;;2.22;;
13985;SDS011;7067;51.832;8.296;2024-03-23T11:50:36;5.28;;;2.70;;
13985;SDS011;7067;51.832;8.296;2024-03-23T11:53:06;6.40;;;2.80;;
13985;SDS011;7067;51.832;8.296;2024-03-23T11:58:14;7.25;;;2.80;;
13985;SDS011;7067;51.832;8.296;2024-03-23T12:00:41;4.30;;;2.25;;
13985;SDS011;7067;51.832;8.296;2024-03-23T12:03:07;8.57;;;3.83;;
13985;SDS011;7067;51.832;8.296;2024-03-23T12:05:33;7.53;;;2.53;;
13985;SDS011;7067;51.832;8.296;2024-03-23T12:10:47;6.20;;;2.28;;
13985;SDS011;7067;51.832;8.296;2024-03-23T12:13:14;4.97;;;1.42;;
13985;SDS011;7067;51.832;8.296;2024-03-23T12:15:44;4.78;;;2.08;;
13985;SDS011;7067;51.832;8.296;2024-03-23T12:18:10;4.65;;;1.13;;
13985;SDS011;7067;51.832;8.296;2024-03-23T12:20:36;1.55;;;0.70;;
13985;SDS011;7067;51.832;8.296;2024-03-23T12:23:12;1.63;;;0.90;;
13985;SDS011;7067;51.832;8.296;2024-03-23T12:25:38;5.32;;;1.10;;
13985;SDS011;7067;51.832;8.296;2024-03-23T12:28:04;4.45;;;1.50;;
13985;SDS011;7067;51.832;8.296;2024-03-23T12:30:36;1.23;;;0.60;;
13985;SDS011;7067;51.832;8.296;2024-03-23T12:33:04;1.05;;;0.63;;
13985;SDS011;7067;51.832;8.296;2024-03-23T12:35:29;2.20;;;0.43;;
13985;SDS011;7067;51.832;8.296;2024-03-23T12:37:55;1.60;;;0.60;;
13985;SDS011;7067;51.832;8.296;2024-03-23T12:40:20;1.63;;;0.40;;
13985;SDS011;7067;51.832;8.296;2024-03-23T12:42:46;1.75;;;0.40;;
13985;SDS011;7067;51.832;8.296;2024-03-23T12:45:11;0.40;;;0.38;;
13985;SDS011;7067;51.832;8.296;2024-03-23T12:47:42;1.65;;;0.40;;
13985;SDS011;7067;51.832;8.296;2024-03-23T12:50:17;1.23;;;0.40;;
13985;SDS011;7067;51.832;8.296;2024-03-23T12:52:49;1.73;;;0.50;;
13985;SDS011;7067;51.832;8.296;2024-03-23T12:55:14;1.95;;;0.50;;
13985;SDS011;7067;51.832;8.296;2024-03-23T12:57:39;3.38;;;0.50;;
13985;SDS011;7067;51.832;8.296;2024-03-23T13:00:06;2.85;;;0.80;;
13985;SDS011;7067;51.832;8.296;2024-03-23T13:02:32;1.67;;;0.50;;
13985;SDS011;7067;51.832;8.296;2024-03-23T13:04:59;2.70;;;0.82;;
13985;SDS011;7067;51.832;8.296;2024-03-23T13:07:25;4.43;;;1.30;;
13985;SDS011;7067;51.832;8.296;2024-03-23T13:09:51;2.92;;;1.42;;
13985;SDS011;7067;51.832;8.296;2024-03-23T13:12:18;3.60;;;0.80;;
13985;SDS011;7067;51.832;8.296;2024-03-23T13:14:44;3.92;;;1.02;;
13985;SDS011;7067;51.832;8.296;2024-03-23T13:17:10;2.97;;;1.20;;
13985;SDS011;7067;51.832;8.296;2024-03-23T13:19:36;5.50;;;1.40;;
13985;SDS011;7067;51.832;8.296;2024-03-23T13:22:01;4.03;;;0.95;;
13985;SDS011;7067;51.832;8.296;2024-03-23T13:24:30;4.38;;;1.35;;
13985;SDS011;7067;51.832;8.296;2024-03-23T13:26:55;4.57;;;1.20;;
13985;SDS011;7067;51.832;8.296;2024-03-23T13:29:21;3.08;;;1.10;;
13985;SDS011;7067;51.832;8.296;2024-03-23T13:31:47;3.88;;;1.45;;
13985;SDS011;7067;51.832;8.296;2024-03-23T13:34:13;2.75;;;1.20;;
13985;SDS011;7067;51.832;8.296;2024-03-23T13:36:42;6.10;;;1.95;;
13985;SDS011;7067;51.832;8.296;2024-03-23T13:39:11;5.05;;;1.38;;
13985;SDS011;7067;51.832;8.296;2024-03-23T13:41:46;3.88;;;2.42;;
13985;SDS011;7067;51.832;8.296;2024-03-23T13:44:12;5.47;;;1.50;;
13985;SDS011;7067;51.832;8.296;2024-03-23T13:46:38;4.35;;;1.50;;
13985;SDS011;7067;51.832;8.296;2024-03-23T13:49:05;4.47;;;2.17;;
13985;SDS011;7067;51.832;8.296;2024-03-23T13:51:31;4.65;;;1.33;;
13985;SDS011;7067;51.832;8.296;2024-03-23T13:53:56;3.58;;;1.55;;
13985;SDS011;7067;51.832;8.296;2024-03-23T13:56:22;4.32;;;1.42;;
13985;SDS011;7067;51.832;8.296;2024-03-23T13:58:48;3.13;;;1.63;;
13985;SDS011;7067;51.832;8.296;2024-03-23T14:01:14;4.65;;;1.45;;
13985;SDS011;7067;51.832;8.296;2024-03-23T14:03:40;3.17;;;1.73;;
13985;SDS011;7067;51.832;8.296;2024-03-23T14:06:06;4.13;;;1.50;;
13985;SDS011;7067;51.832;8.296;2024-03-23T14:08:32;1.98;;;1.25;;
13985;SDS011;7067;51.832;8.296;2024-03-23T14:11:00;6.13;;;1.55;;
13985;SDS011;7067;51.832;8.296;2024-03-23T14:13:27;3.17;;;1.33;;
13985;SDS011;7067;51.832;8.296;2024-03-23T14:15:53;5.43;;;1.63;;
13985;SDS011;7067;51.832;8.296;2024-03-23T14:18:18;3.35;;;1.25;;
13985;SDS011;7067;51.832;8.296;2024-03-23T14:20:44;3.83;;;1.33;;
13985;SDS011;7067;51.832;8.296;2024-03-23T14:23:09;4.50;;;1.20;;
13985;SDS011;7067;51.832;8.296;2024-03-23T14:25:35;2.42;;;0.93;;
13985;SDS011;7067;51.832;8.296;2024-03-23T14:28:00;1.75;;;0.98;;
13985;SDS011;7067;51.832;8.296;2024-03-23T14:30:25;5.55;;;1.40;;
13985;SDS011;7067;51.832;8.296;2024-03-23T14:32:51;3.88;;;1.33;;
13985;SDS011;7067;51.832;8.296;2024-03-23T14:35:16;5.40;;;1.52;;
13985;SDS011;7067;51.832;8.296;2024-03-23T14:37:41;3.42;;;1.05;;
13985;SDS011;7067;51.832;8.296;2024-03-23T14:40:07;4.38;;;1.52;;
13985;SDS011;7067;51.832;8.296;2024-03-23T14:42:33;4.63;;;1.42;;
13985;SDS011;7067;51.832;8.296;2024-03-23T14:44:58;3.30;;;1.73;;
13985;SDS011;7067;51.832;8.296;2024-03-23T14:47:23;5.18;;;1.73;;
13985;SDS011;7067;51.832;8.296;2024-03-23T14:49:49;2.10;;;0.80;;
13985;SDS011;7067;51.832;8.296;2024-03-23T14:52:18;3.97;;;1.58;;
13985;SDS011;7067;51.832;8.296;2024-03-23T14:54:43;6.05;;;1.75;;
13985;SDS011;7067;51.832;8.296;2024-03-23T14:57:09;5.47;;;1.98;;
13985;SDS011;7067;51.832;8.296;2024-03-23T14:59:35;3.85;;;1.38;;
13985;SDS011;7067;51.832;8.296;2024-03-23T15:02:00;4.03;;;1.90;;
13985;SDS011;7067;51.832;8.296;2024-03-23T15:04:26;2.58;;;1.92;;
13985;SDS011;7067;51.832;8.296;2024-03-23T15:06:51;5.28;;;2.38;;
13985;SDS011;7067;51.832;8.296;2024-03-23T15:09:17;3.38;;;2.53;;
13985;SDS011;7067;51.832;8.296;2024-03-23T15:11:43;6.10;;;2.33;;
13985;SDS011;7067;51.832;8.296;2024-03-23T15:14:08;2.20;;;1.40;;
13985;SDS011;7067;51.832;8.296;2024-03-23T15:16:35;3.72;;;2.03;;
13985;SDS011;7067;51.832;8.296;2024-03-23T15:19:01;3.88;;;1.80;;
13985;SDS011;7067;51.832;8.296;2024-03-23T15:21:26;3.38;;;1.92;;
13985;SDS011;7067;51.832;8.296;2024-03-23T15:23:52;2.80;;;1.67;;
13985;SDS011;7067;51.832;8.296;2024-03-23T15:26:17;5.70;;;2.08;;
13985;SDS011;7067;51.832;8.296;2024-03-23T15:28:42;4.05;;;2.70;;
13985;SDS011;7067;51.832;8.296;2024-03-23T15:31:23;7.85;;;2.45;;
13985;SDS011;7067;51.832;8.296;2024-03-23T15:33:48;2.13;;;1.50;;
13985;SDS011;7067;51.832;8.296;2024-03-23T15:36:14;3.60;;;2.20;;
13985;SDS011;7067;51.832;8.296;2024-03-23T15:38:39;4.05;;;1.60;;
13985;SDS011;7067;51.832;8.296;2024-03-23T15:41:04;4.25;;;1.48;;
13985;SDS011;7067;51.832;8.296;2024-03-23T15:43:30;4.65;;;1.40;;
13985;SDS011;7067;51.832;8.296;2024-03-23T15:45:59;3.20;;;1.40;;
13985;SDS011;7067;51.832;8.296;2024-03-23T15:48:26;3.92;;;1.25;;
13985;SDS011;7067;51.832;8.296;2024-03-23T15:50:55;5.70;;;1.92;;
13985;SDS011;7067;51.832;8.296;2024-03-23T15:53:21;4.32;;;1.15;;
13985;SDS011;7067;51.832;8.296;2024-03-23T15:55:54;3.80;;;1.20;;
13985;SDS011;7067;51.832;8.296;2024-03-23T15:58:26;3.00;;;1.48;;
13985;SDS011;7067;51.832;8.296;2024-03-23T16:03:31;3.17;;;1.00;;